Time;durP1;ratioP1;P1;durP2;ratioP2;P2;SDS_P1;SDS_P2;PMS_P1;PMS_P2;Temp;Humidity;BMP_temperature;BMP_pressure;BME280_temperature;BME280_humidity;BME280_pressure;Samples;Min_cycle;Max_cycle;Signal;HPM_P1;HPM_P2
2022/01/17 00:02:22;;;;;;;8.70;2.22;;;5.20;99.90;;;;;;6190617;23;20048;-94
2022/01/17 00:05:22;;;;;;;5.95;2.33;;;5.40;99.90;;;;;;6170244;23;20090;-95
2022/01/17 00:08:16;;;;;;;;;;;;;;;;;;;;;
2022/01/17 00:10:59;;;;;;;7.07;3.92;;;5.10;99.90;;;;;;6215650;23;20388;-95
2022/01/17 00:14:05;;;;;;;9.43;4.88;;;5.10;99.90;;;;;;6189710;23;20013;-96
2022/01/17 00:16:47;;;;;;;8.52;2.40;;;5.00;99.90;;;;;;6212941;23;20130;-94
2022/01/17 00:21:50;;;;;;;7.88;2.03;;;4.90;99.90;;;;;;6191366;23;20048;-94
2022/01/17 00:24:29;;;;;;;;;;;;;;;;;;;;;
2022/01/17 00:27:13;;;;;;;;;;;;;;;;;;;;;
2022/01/17 00:30:09;;;;;;;4.57;2.65;;;4.80;99.90;;;;;;6192916;23;20083;-95
2022/01/17 00:32:40;;;;;;;8.30;1.80;;;5.90;99.90;;;;;;6190479;23;20013;-94
2022/01/17 00:35:24;;;;;;;3.92;1.92;;;4.70;99.90;;;;;;6190564;23;20009;-96
2022/01/17 00:38:00;;;;;;;6.72;2.78;;;4.70;99.90;;;;;;6168245;23;20306;-95
2022/01/17 00:40:29;;;;;;;6.80;2.17;;;4.70;99.90;;;;;;6165074;23;20012;-96
2022/01/17 00:43:05;;;;;;;3.55;1.95;;;6.00;99.90;;;;;;6190030;23;20092;-96
2022/01/17 00:45:43;;;;;;;;;;;;;;;;;;;;;
2022/01/17 00:48:31;;;;;;;7.90;2.70;;;4.00;99.90;;;;;;6192682;23;20013;-95
2022/01/17 00:51:02;;;;;;;10.48;2.40;;;4.80;99.90;;;;;;6166607;23;20070;-96
2022/01/17 00:53:37;;;;;;;2.55;1.58;;;5.30;99.90;;;;;;6189713;23;20015;-95
2022/01/17 00:56:26;;;;;;;8.55;1.50;;;4.80;99.90;;;;;;6190118;23;20016;-94
2022/01/17 00:59:04;;;;;;;;;;;;;;;;;;;;;
2022/01/17 01:01:35;;;;;;;5.10;2.00;;;4.30;99.90;;;;;;6214283;23;20095;-96
2022/01/17 01:04:42;;;;;;;6.65;2.17;;;3.90;99.90;;;;;;6165650;23;20023;-95
2022/01/17 01:10:48;;;;;;;11.43;2.30;;;5.80;99.90;;;;;;6174075;23;20075;-95
2022/01/17 01:13:17;;;;;;;12.98;2.10;;;4.90;99.90;;;;;;6190172;23;20051;-96
2022/01/17 01:19:08;;;;;;;4.00;1.70;;;4.80;99.90;;;;;;6192809;23;20016;-95
2022/01/17 01:27:47;;;;;;;4.70;1.85;;;4.80;99.90;;;;;;6197455;23;20020;-96
2022/01/17 01:30:24;;;;;;;3.70;1.73;;;5.40;99.90;;;;;;6167167;23;20503;-95
2022/01/17 01:33:03;;;;;;;11.40;1.88;;;4.80;99.90;;;;;;6190496;23;20441;-95
2022/01/17 01:35:46;;;;;;;6.80;1.87;;;4.80;99.90;;;;;;6166469;23;20023;-94
2022/01/17 01:38:39;;;;;;;6.97;2.42;;;4.30;99.90;;;;;;6190088;23;20051;-94
2022/01/17 01:44:06;;;;;;;11.25;1.83;;;4.80;99.90;;;;;;6201002;23;20083;-94
2022/01/17 01:46:36;;;;;;;5.97;1.80;;;4.80;99.90;;;;;;6164847;23;20123;-96
2022/01/17 01:49:17;;;;;;;12.10;2.50;;;5.20;99.90;;;;;;6164910;23;20019;-96
2022/01/17 01:51:59;;;;;;;10.30;2.45;;;4.70;99.90;;;;;;6189333;23;20013;-95
2022/01/17 01:54:54;;;;;;;7.95;1.98;;;4.20;99.90;;;;;;6165513;23;20043;-95
2022/01/17 01:57:34;;;;;;;12.75;3.03;;;4.80;99.90;;;;;;6189890;23;20023;-95
2022/01/17 02:00:26;;;;;;;;;;;;;;;;;;;;;
2022/01/17 02:03:01;;;;;;;12.07;3.58;;;4.70;99.90;;;;;;6213878;23;20079;-95
2022/01/17 02:05:37;;;;;;;6.18;2.45;;;4.50;99.90;;;;;;6166166;23;20023;-95
2022/01/17 02:08:27;;;;;;;10.30;2.00;;;6.00;99.90;;;;;;6165589;23;20024;-95
2022/01/17 02:11:07;;;;;;;8.00;1.88;;;4.70;99.90;;;;;;6191368;23;20017;-96
2022/01/17 02:13:36;;;;;;;13.90;2.25;;;4.70;99.90;;;;;;6189763;23;20020;-96
2022/01/17 02:16:49;;;;;;;7.07;1.57;;;4.20;99.90;;;;;;6189322;23;20449;-96
2022/01/17 02:19:20;;;;;;;;;;;5.70;99.90;;;;;;6213374;23;20255;-95
2022/01/17 02:22:07;;;;;;;7.95;2.55;;;4.60;99.90;;;;;;6191375;23;19912;-96
2022/01/17 02:24:48;;;;;;;;;;;;;;;;;;;;;
2022/01/17 02:27:43;;;;;;;13.18;1.90;;;4.60;99.90;;;;;;6214626;23;20080;-96
2022/01/17 02:30:22;;;;;;;11.13;2.25;;;4.90;99.90;;;;;;6190260;23;20009;-95
2022/01/17 02:32:58;;;;;;;2.50;2.00;;;4.50;99.90;;;;;;6187163;23;20013;-96
2022/01/17 02:35:37;;;;;;;8.57;3.30;;;5.80;99.90;;;;;;6189307;23;20070;-95
2022/01/17 02:38:31;;;;;;;14.13;2.45;;;4.40;99.90;;;;;;6170610;23;20058;-95
2022/01/17 02:41:13;;;;;;;;;;;;;;;;;;;;;
2022/01/17 02:44:04;;;;;;;11.13;2.97;;;4.50;99.90;;;;;;6216287;23;20024;-95
2022/01/17 02:46:37;;;;;;;7.70;2.00;;;3.50;99.90;;;;;;6169156;23;20445;-95
2022/01/17 02:49:12;;;;;;;6.15;2.28;;;4.40;99.90;;;;;;6168245;23;20067;-95
2022/01/17 02:51:51;;;;;;;7.60;2.13;;;4.10;99.90;;;;;;6190842;23;20013;-95
2022/01/17 02:54:45;;;;;;;8.48;1.65;;;4.40;99.90;;;;;;6167124;23;20044;-94
2022/01/17 02:57:56;;;;;;;;;;;;;;;;;;;;;
2022/01/17 03:00:28;;;;;;;5.20;2.37;;;4.80;99.90;;;;;;6216537;23;20017;-95
2022/01/17 03:03:01;;;;;;;8.98;2.25;;;3.50;99.90;;;;;;6166803;23;20047;-95
2022/01/17 03:05:44;;;;;;;4.50;2.03;;;5.20;99.90;;;;;;6191571;23;20043;-94
2022/01/17 03:08:16;;;;;;;6.57;1.60;;;4.40;99.90;;;;;;6191120;23;20091;-94
2022/01/17 03:24:59;;;;;;;9.57;2.20;;;4.40;99.90;;;;;;6205188;22;20440;-95
2022/01/17 03:27:35;;;;;;;9.35;2.95;;;4.30;99.90;;;;;;6100558;23;20029;-96
2022/01/17 03:30:46;;;;;;;;;;;;;;;;;;;;;
2022/01/17 03:33:51;;;;;;;;;;;;;;;;;;;;;
2022/01/17 03:36:45;;;;;;;13.93;3.33;;;4.80;99.90;;;;;;6208092;23;20016;-96
2022/01/17 03:39:21;;;;;;;7.35;2.45;;;4.40;99.90;;;;;;6190636;23;20013;-95
2022/01/17 03:42:18;;;;;;;3.90;1.70;;;4.40;99.90;;;;;;6190416;23;20013;-95
2022/01/17 03:44:55;;;;;;;11.52;2.88;;;4.60;99.90;;;;;;6190381;23;20013;-95
2022/01/17 03:47:34;;;;;;;20.13;1.98;;;4.60;99.90;;;;;;6190717;23;20008;-96
2022/01/17 03:50:33;;;;;;;10.07;2.75;;;5.60;99.90;;;;;;6169775;23;20008;-95
2022/01/17 03:53:50;;;;;;;;;;;;;;;;;;;;;
2022/01/17 03:56:33;;;;;;;7.50;1.92;;;4.00;99.90;;;;;;6215629;23;20017;-95
2022/01/17 03:59:17;;;;;;;;;;;;;;;;;;;;;
2022/01/17 04:01:55;;;;;;;6.18;2.75;;;4.70;99.90;;;;;;6193384;23;20067;-95
2022/01/17 04:04:58;;;;;;;;;;;;;;;;;;;;;
2022/01/17 04:07:25;;;;;;;4.07;1.55;;;5.90;99.90;;;;;;6211898;23;20012;-94
2022/01/17 04:10:01;;;;;;;2.70;1.65;;;4.70;99.90;;;;;;6190035;23;20016;-95
2022/01/17 04:12:36;;;;;;;4.30;1.47;;;4.70;99.90;;;;;;6190266;23;20023;-95
2022/01/17 04:15:30;;;;;;;12.70;2.17;;;4.80;99.90;;;;;;6189304;23;20735;-96
2022/01/17 04:18:04;;;;;;;5.07;1.90;;;6.20;99.90;;;;;;6169929;23;20013;-95
2022/01/17 04:20:48;;;;;;;7.57;2.30;;;5.70;99.90;;;;;;6190576;23;20095;-95
2022/01/17 04:23:18;;;;;;;3.78;1.90;;;4.80;99.90;;;;;;6190099;23;20528;-95
2022/01/17 04:25:57;;;;;;;3.75;2.55;;;5.50;99.90;;;;;;6190426;23;20067;-95
2022/01/17 04:28:49;;;;;;;5.55;2.10;;;4.70;99.90;;;;;;6168545;23;20019;-95
2022/01/17 04:31:47;;;;;;;11.55;1.92;;;4.60;99.90;;;;;;6169640;23;20017;-96
2022/01/17 04:34:23;;;;;;;7.20;1.63;;;4.70;99.90;;;;;;6190085;23;20067;-95
2022/01/17 04:36:52;;;;;;;4.50;1.95;;;4.70;99.90;;;;;;6166606;23;20040;-95
2022/01/17 04:39:31;;;;;;;;;;;;;;;;;;;;;
2022/01/17 04:42:10;;;;;;;8.48;1.95;;;5.00;99.90;;;;;;6214667;23;20447;-96
2022/01/17 04:45:18;;;;;;;;;;;;;;;;;;;;;
2022/01/17 04:47:59;;;;;;;3.33;1.52;;;4.80;99.90;;;;;;6192743;23;20015;-95
2022/01/17 04:50:32;;;;;;;4.55;2.13;;;4.70;99.90;;;;;;6165564;23;20020;-95
2022/01/17 04:53:27;;;;;;;;;;;;;;;;;;;;;
2022/01/17 04:56:13;;;;;;;8.75;1.70;;;4.80;99.90;;;;;;6214626;23;20015;-95
2022/01/17 04:59:09;;;;;;;8.18;2.38;;;4.80;99.90;;;;;;6146254;23;20012;-95
2022/01/17 05:01:59;;;;;;;11.23;1.98;;;3.90;99.90;;;;;;6165550;23;20021;-94
2022/01/17 05:05:05;;;;;;;;;;;;;;;;;;;;;
2022/01/17 05:07:56;;;;;;;3.60;1.70;;;5.00;99.90;;;;;;6197049;23;20039;-95
2022/01/17 05:10:49;;;;;;;;;;;;;;;;;;;;;
2022/01/17 05:13:33;;;;;;;6.30;1.83;;;6.30;99.90;;;;;;6193852;23;20036;-95
2022/01/17 05:16:20;;;;;;;4.65;1.73;;;5.90;99.90;;;;;;6189615;23;20024;-94
2022/01/17 05:21:55;;;;;;;9.95;2.78;;;5.10;99.90;;;;;;6214650;23;20023;-94
2022/01/17 05:24:27;;;;;;;10.93;2.38;;;4.80;99.90;;;;;;6168214;23;20024;-96
2022/01/17 05:27:05;;;;;;;6.18;1.92;;;5.20;99.90;;;;;;6189176;23;20463;-96
2022/01/17 05:29:42;;;;;;;8.38;3.30;;;6.20;99.90;;;;;;6190598;23;20012;-95
2022/01/17 05:32:32;;;;;;;4.82;2.00;;;5.10;99.90;;;;;;6189415;23;20252;-96
2022/01/17 05:35:07;;;;;;;7.57;2.00;;;5.30;99.90;;;;;;6213781;23;20023;-96
2022/01/17 05:37:52;;;;;;;4.47;1.40;;;5.20;99.90;;;;;;6192069;23;20016;-96
2022/01/17 05:40:21;;;;;;;12.02;2.58;;;5.30;99.90;;;;;;6189545;23;20066;-94
2022/01/17 05:43:16;;;;;;;7.63;2.20;;;4.50;99.90;;;;;;6189823;23;20016;-95
2022/01/17 05:45:55;;;;;;;8.40;3.05;;;6.40;99.90;;;;;;6190000;23;20095;-96
2022/01/17 05:48:28;;;;;;;12.05;2.70;;;5.40;99.90;;;;;;6141422;23;20019;-96
2022/01/17 05:51:11;;;;;;;;;;;;;;;;;;;;;
2022/01/17 05:56:52;;;;;;;8.30;2.63;;;5.60;99.90;;;;;;6215187;23;20052;-96
2022/01/17 06:00:05;;;;;;;;;;;;;;;;;;;;;
2022/01/17 06:02:36;;;;;;;8.85;2.70;;;5.80;99.90;;;;;;6189023;23;20051;-94
2022/01/17 06:05:16;;;;;;;5.90;2.88;;;5.40;99.90;;;;;;6190096;23;20020;-94
2022/01/17 06:08:02;;;;;;;11.88;2.92;;;6.50;99.90;;;;;;6189118;23;20024;-95
2022/01/17 06:10:48;;;;;;;6.85;2.53;;;5.50;99.90;;;;;;6167955;23;20013;-94
2022/01/17 06:13:17;;;;;;;5.13;2.50;;;5.60;99.90;;;;;;6168079;23;20328;-95
2022/01/17 06:16:24;;;;;;;6.90;2.45;;;5.70;99.90;;;;;;6216646;23;20016;-95
2022/01/17 06:19:34;;;;;;;8.90;3.08;;;5.50;99.90;;;;;;6196119;23;20066;-95
2022/01/17 06:22:22;;;;;;;13.43;2.97;;;5.60;99.90;;;;;;6145820;23;20082;-94
2022/01/17 06:25:02;;;;;;;5.40;2.55;;;6.40;99.90;;;;;;6167973;23;20020;-96
2022/01/17 06:27:40;;;;;;;3.83;2.65;;;5.50;99.90;;;;;;6191398;23;20008;-94
2022/01/17 06:30:54;;;;;;;11.32;3.80;;;5.10;99.90;;;;;;6167604;23;20008;-96
2022/01/17 06:34:02;;;;;;;5.97;3.35;;;5.60;99.90;;;;;;6194295;23;20037;-95
2022/01/17 06:40:14;;;;;;;10.23;3.92;;;5.60;99.90;;;;;;6193882;23;20016;-96
2022/01/17 06:43:13;;;;;;;;;;;;;;;;;;;;;
2022/01/17 06:46:06;;;;;;;9.30;3.58;;;6.20;99.90;;;;;;6216089;23;20008;-95
2022/01/17 06:52:01;;;;;;;;;;;;;;;;;;;;;
2022/01/17 06:54:58;;;;;;;;;;;;;;;;;;;;;
2022/01/17 06:57:44;;;;;;;10.32;3.22;;;5.60;99.90;;;;;;6195511;23;20094;-95
2022/01/17 07:00:35;;;;;;;9.90;3.40;;;5.70;99.90;;;;;;6194782;23;20071;-95
2022/01/17 07:03:31;;;;;;;10.00;2.95;;;5.60;99.90;;;;;;6166520;23;20016;-95
2022/01/17 07:06:13;;;;;;;10.05;3.15;;;4.90;99.90;;;;;;6190781;23;20013;-95
2022/01/17 07:09:08;;;;;;;;;;;;;;;;;;;;;
2022/01/17 07:11:58;;;;;;;;;;;;;;;;;;;;;
2022/01/17 07:14:52;;;;;;;12.80;2.72;;;5.50;99.90;;;;;;6215755;23;20023;-95
2022/01/17 07:17:32;;;;;;;9.77;3.03;;;5.60;99.90;;;;;;6183557;23;20020;-95
2022/01/17 07:20:31;;;;;;;;;;;;;;;;;;;;;
2022/01/17 15:56:42;;;;;;;;;;;;;;;;;;;;;
2022/01/17 16:35:03;;;;;;;;;;;;;;;;;;;;;
2022/01/17 16:38:14;;;;;;;;;;;;;;;;;;;;;
2022/01/17 16:45:07;;;;;;;16.00;5.30;;;7.40;99.90;;;;;;6135330;23;20024;-96
2022/01/17 16:48:45;;;;;;;;;;;;;;;;;;;;;
2022/01/17 17:10:55;;;;;;;14.20;4.38;;;7.30;99.90;;;;;;6055252;23;20019;-96
2022/01/17 17:22:24;;;;;;;;;;;;;;;;;;;;;
2022/01/17 17:32:41;;;;;;;;;;;;;;;;;;;;;
2022/01/17 18:42:03;;;;;;;;;;;;;;;;;;;;;
2022/01/17 18:45:11;;;;;;;;;;;;;;;;;;;;;
2022/01/17 18:51:42;;;;;;;7.20;2.53;;;7.00;99.90;;;;;;6197539;23;20096;-95
2022/01/17 18:54:51;;;;;;;;;;;;;;;;;;;;;
2022/01/17 18:57:37;;;;;;;5.13;2.72;;;7.00;99.90;;;;;;6175011;23;20013;-96
2022/01/17 19:04:40;;;;;;;11.02;3.47;;;6.10;99.90;;;;;;6173166;23;20025;-96
2022/01/17 19:07:13;;;;;;;12.88;2.92;;;7.90;99.90;;;;;;6140255;23;20042;-96
2022/01/17 19:10:25;;;;;;;;;;;;;;;;;;;;;
2022/01/17 19:23:22;;;;;;;12.48;3.00;;;7.00;99.90;;;;;;6173408;23;20017;-95
2022/01/17 19:26:40;;;;;;;6.07;2.33;;;6.10;99.90;;;;;;6154174;23;20017;-95
2022/01/17 19:30:15;;;;;;;;;;;;;;;;;;;;;
2022/01/17 19:37:30;;;;;;;;;;;;;;;;;;;;;
2022/01/17 19:41:29;;;;;;;;;;;;;;;;;;;;;
2022/01/17 19:44:56;;;;;;;8.48;2.25;;;7.00;99.90;;;;;;6172638;23;20025;-96
2022/01/17 19:48:19;;;;;;;;;;;;;;;;;;;;;
2022/01/17 19:58:24;;;;;;;10.93;3.70;;;7.10;99.90;;;;;;6170078;23;20024;-96
2022/01/17 20:05:22;;;;;;;13.35;2.45;;;7.00;99.90;;;;;;6156688;23;20021;-96
2022/01/17 20:15:25;;;;;;;7.80;2.75;;;7.00;99.90;;;;;;6088907;23;20029;-96
2022/01/17 20:18:29;;;;;;;;;;;;;;;;;;;;;
2022/01/17 20:21:37;;;;;;;;;;;;;;;;;;;;;
2022/01/17 20:24:59;;;;;;;;;;;;;;;;;;;;;
2022/01/17 20:33:05;;;;;;;;;;;;;;;;;;;;;
2022/01/17 20:35:21;;;;;;;11.90;3.45;;;7.10;99.90;;;;;;6087023;23;20022;-96
2022/01/17 20:38:16;;;;;;;;;;;;;;;;;;;;;
2022/01/17 20:44:10;;;;;;;;;;;;;;;;;;;;;
2022/01/17 20:47:43;;;;;;;;;;;;;;;;;;;;;
2022/01/17 20:54:26;;;;;;;;;;;;;;;;;;;;;
2022/01/17 20:57:11;;;;;;;;;;;;;;;;;;;;;
2022/01/17 21:18:35;;;;;;;10.68;4.22;;;7.50;99.90;;;;;;5988457;24;20341;-94
2022/01/17 21:21:46;;;;;;;;;;;;;;;;;;;;;
2022/01/17 21:25:24;;;;;;;;;;;;;;;;;;;;;
2022/01/17 21:31:46;;;;;;;;;;;;;;;;;;;;;
2022/01/17 21:38:05;;;;;;;10.82;4.18;;;6.80;99.90;;;;;;6032948;23;20096;-94
2022/01/17 21:41:40;;;;;;;;;;;;;;;;;;;;;
2022/01/17 21:44:23;;;;;;;9.60;3.33;;;6.80;99.90;;;;;;6077697;23;20018;-96
2022/01/17 21:47:52;;;;;;;;;;;;;;;;;;;;;
2022/01/17 21:50:29;;;;;;;6.82;3.33;;;6.80;99.90;;;;;;6143168;23;20013;-96
2022/01/17 21:56:49;;;;;;;;;;;;;;;;;;;;;
2022/01/17 22:03:37;;;;;;;;;;;;;;;;;;;;;
2022/01/17 22:06:47;;;;;;;;;;;;;;;;;;;;;
2022/01/17 22:09:07;;;;;;;11.18;3.15;;;6.70;99.90;;;;;;6152851;23;20088;-96
2022/01/17 22:18:40;;;;;;;;;;;;;;;;;;;;;
2022/01/17 22:25:09;;;;;;;;;;;;;;;;;;;;;
2022/01/17 22:31:49;;;;;;;;;;;;;;;;;;;;;
2022/01/17 22:35:26;;;;;;;;;;;;;;;;;;;;;
2022/01/17 22:39:45;;;;;;;;;;;;;;;;;;;;;
2022/01/17 22:42:35;;;;;;;;;;;;;;;;;;;;;
2022/01/17 22:45:13;;;;;;;11.77;4.15;;;6.70;99.90;;;;;;6157553;23;20016;-95
2022/01/17 22:51:38;;;;;;;9.77;4.30;;;6.70;99.90;;;;;;6055728;23;20446;-94
2022/01/17 22:54:40;;;;;;;16.15;5.78;;;6.00;99.90;;;;;;6137457;23;20240;-96
2022/01/17 22:57:27;;;;;;;26.48;5.60;;;5.90;99.90;;;;;;6136896;23;20092;-96
2022/01/17 23:00:25;;;;;;;;;;;;;;;;;;;;;
2022/01/17 23:03:59;;;;;;;;;;;;;;;;;;;;;
2022/01/17 23:21:43;;;;;;;30.00;7.38;;;7.60;99.90;;;;;;6042737;23;20022;-96
2022/01/17 23:30:00;;;;;;;;;;;;;;;;;;;;;
